Pitt Meadows, British Columbia

8:29 PM PST on December 24, 2014 (GMT -0800)
Pitt Meadows Chez Douglas | Change Station
CLOSE
Current Station
Personal Weather Station
Location: Pitt Meadows, BRITISH COLUMBIA
Elevation: 66 ft
Nearby Weather Stations

Elev 66 ft 49.22 °N, 122.69 °W | Updated 4 minutes ago

Mostly Cloudy
Mostly Cloudy
38.8 °F
Feels Like 37 °F
N
3.1
Wind Variable Wind from ENE

Today
High -- | Low -- °F
--% Chance of Precip.
Yesterday
High -- | Low -- °F
Precip. -- in
8:04 AM 4:16 PM
Waxing Crescent, 13% visible
Pressure 29.98 in
Visibility 10.0 miles
Clouds Scattered Clouds 2000 ft
Mostly Cloudy 4000 ft
Windchill 37 °F
Dew Point 39 °F
Humidity 99%
Rainfall 0.11 in
Snow Depth Not available.
UV 0 out of 12
Pollen Not available.
Air Quality Not available.
Flu Activity Not available.
METAR CYXX 250400Z VRB02KT 10SM SCT020TCU BKN040 05/04 A2997 RMK TCU4SC2 OCNL -SHRA SLP150

More Conditions Fewer Conditions

Pressure 29.98 in
Visibility 10.0 miles
Clouds Scattered Clouds 2000 ft
Mostly Cloudy 4000 ft
Windchill 37 °F
Dew Point 39 °F
Humidity 99%
Rainfall 0.11 in
Snow Depth Not available.
UV 0 out of 12
Pollen Not available.
Air Quality Not available.
Flu Activity Not available.
METAR CYXX 250400Z VRB02KT 10SM SCT020TCU BKN040 05/04 A2997 RMK TCU4SC2 OCNL -SHRA SLP150

More Conditions Fewer Conditions

10-Day Weather Forecast

Almanac

Astronomy

Dec. 24, 2014 Rise Set
Actual Time
Civil Twilight
Nautical Twilight
Astronomical Twilight
Moon
Length of Visible Light
Length of Day
Tomorrow will be .
, % of the Moon is Illuminated

Today's Extremes

Country Highs Country Lows

Community

WunderPhotos

Upload Photos

1,780,235 photos uploaded!

WunderBlogs® & News

Nearby

Air Quality

  Air Quality AQ Index Pollutant
Not available.

Snow Depth

Station Depth Elevation

Earthquake Activity

City Distance Mag. Time & Date
Minimum magnitude displayed is 2.5.

Coastal Water Temperatures

Place Temperature

Nearby Weather Stations